createdAt,value
2023-05-24T00:00:12.343Z,4.19
2023-05-24T00:01:15.320Z,3.48
2023-05-24T00:02:18.396Z,3.57
2023-05-24T00:03:21.473Z,3.92
2023-05-24T00:04:25.576Z,3.78
2023-05-24T00:05:28.764Z,3.56
2023-05-24T00:06:32.164Z,3.37
2023-05-24T00:07:35.230Z,3.49
2023-05-24T00:08:38.205Z,3.64
2023-05-24T00:09:41.487Z,3.71
2023-05-24T00:10:44.508Z,3.62
2023-05-24T00:11:47.651Z,3.60
2023-05-24T00:12:50.525Z,3.63
2023-05-24T00:13:53.396Z,4.20
2023-05-24T00:14:56.373Z,3.70
2023-05-24T00:15:59.157Z,4.67
2023-05-24T00:17:01.962Z,4.18
2023-05-24T00:18:04.754Z,4.10
2023-05-24T00:19:07.677Z,3.95
2023-05-24T00:20:11.030Z,4.10
2023-05-24T00:21:13.727Z,4.05
2023-05-24T00:22:16.813Z,4.27
2023-05-24T00:23:19.777Z,3.97
2023-05-24T00:24:22.666Z,3.84
2023-05-24T00:25:25.432Z,3.82
2023-05-24T00:26:28.200Z,3.84
2023-05-24T00:27:31.074Z,4.15
2023-05-24T00:28:33.958Z,4.28
2023-05-24T00:29:37.151Z,3.80
2023-05-24T00:30:40.154Z,4.13
2023-05-24T00:31:42.996Z,4.12
2023-05-24T00:32:45.892Z,4.05
2023-05-24T00:33:48.836Z,3.69
2023-05-24T00:34:52.025Z,3.98
2023-05-24T00:35:55.419Z,3.86
2023-05-24T00:36:58.377Z,3.64
2023-05-24T00:38:01.362Z,3.53
2023-05-24T00:39:04.233Z,3.41
2023-05-24T00:40:07.324Z,3.39
2023-05-24T00:41:10.392Z,3.06
2023-05-24T00:42:13.996Z,3.28
2023-05-24T00:43:17.273Z,3.34
2023-05-24T00:44:20.256Z,4.36
2023-05-24T00:45:23.334Z,4.91
2023-05-24T00:46:26.606Z,4.48
2023-05-24T00:47:29.835Z,3.85
2023-05-24T00:48:32.887Z,4.27
2023-05-24T00:49:36.257Z,3.71
2023-05-24T00:50:39.134Z,3.25
2023-05-24T00:51:42.317Z,3.43
2023-05-24T00:52:45.397Z,3.48
2023-05-24T00:53:48.591Z,3.71
2023-05-24T00:54:51.880Z,4.06
2023-05-24T00:55:55.333Z,4.13
2023-05-24T00:56:58.538Z,3.42
2023-05-24T00:58:01.517Z,3.76
2023-05-24T00:59:04.283Z,3.94
2023-05-24T01:00:07.358Z,3.98
2023-05-24T01:01:10.355Z,3.88
2023-05-24T01:02:13.878Z,3.77
2023-05-24T01:03:16.892Z,3.90
2023-05-24T01:04:19.889Z,4.03
2023-05-24T01:05:23.067Z,6.16
2023-05-24T01:06:26.150Z,4.41
2023-05-24T01:07:29.429Z,3.74
2023-05-24T01:08:32.516Z,3.53
2023-05-24T01:09:35.499Z,4.22
2023-05-24T01:10:38.692Z,4.03
2023-05-24T01:11:41.752Z,4.18
2023-05-24T01:12:45.131Z,4.12
2023-05-24T01:13:48.019Z,4.25
2023-05-24T01:14:51.089Z,3.94
2023-05-24T01:15:54.129Z,3.73
2023-05-24T01:16:57.049Z,3.82
2023-05-24T01:18:00.254Z,3.75
2023-05-24T01:19:03.198Z,5.13
2023-05-24T01:20:06.411Z,4.45
2023-05-24T01:21:09.360Z,4.93
2023-05-24T01:22:12.351Z,4.26
2023-05-24T01:23:15.631Z,4.13
2023-05-24T01:24:19.012Z,3.95
2023-05-24T01:25:21.777Z,4.08
2023-05-24T01:26:24.565Z,4.93
2023-05-24T01:27:27.433Z,4.26
2023-05-24T01:28:30.335Z,4.40
2023-05-24T01:29:32.971Z,4.58
2023-05-24T01:30:35.849Z,4.16
2023-05-24T01:31:38.641Z,4.37
2023-05-24T01:32:41.329Z,4.16
2023-05-24T01:33:44.276Z,4.15
2023-05-24T01:34:47.470Z,4.32
2023-05-24T01:35:50.333Z,4.70
2023-05-24T01:36:53.512Z,4.44
2023-05-24T01:37:56.581Z,4.38
2023-05-24T01:38:59.985Z,5.10
2023-05-24T01:40:03.169Z,5.39
2023-05-24T01:41:05.942Z,4.45
2023-05-24T01:42:10.030Z,4.28
2023-05-24T01:43:13.110Z,4.19
2023-05-24T01:44:16.390Z,4.36
2023-05-24T01:45:19.571Z,4.62
2023-05-24T01:46:23.516Z,4.02
2023-05-24T01:47:27.103Z,3.95
2023-05-24T01:48:30.244Z,4.91
2023-05-24T01:49:33.768Z,4.92
2023-05-24T01:50:36.511Z,4.31
2023-05-24T01:51:39.180Z,3.77
2023-05-24T01:52:42.257Z,4.21
2023-05-24T01:53:45.027Z,4.55
2023-05-24T01:54:47.898Z,4.42
2023-05-24T01:55:50.771Z,4.95
2023-05-24T01:56:53.546Z,4.72
2023-05-24T01:57:56.315Z,4.23
2023-05-24T01:58:59.092Z,4.62
2023-05-24T02:00:02.016Z,4.37
2023-05-24T02:01:05.010Z,4.68
2023-05-24T02:02:07.863Z,4.15
2023-05-24T02:03:10.671Z,4.31
2023-05-24T02:04:13.579Z,5.84
2023-05-24T02:05:16.656Z,4.94
2023-05-24T02:06:19.525Z,5.77
2023-05-24T02:07:22.211Z,4.89
2023-05-24T02:08:25.369Z,4.79
2023-05-24T02:09:28.263Z,4.17
2023-05-24T02:10:31.016Z,4.48
2023-05-24T02:11:34.433Z,4.72
2023-05-24T02:12:37.381Z,4.03
2023-05-24T02:13:40.366Z,5.15
2023-05-24T02:14:43.350Z,4.08
2023-05-24T02:15:46.526Z,5.18
2023-05-24T02:16:49.253Z,4.78
2023-05-24T02:17:52.091Z,4.82
2023-05-24T02:18:54.833Z,4.45
2023-05-24T02:19:57.660Z,4.37
2023-05-24T02:21:00.704Z,4.19
2023-05-24T02:22:03.365Z,4.02
2023-05-24T02:23:06.040Z,3.45
2023-05-24T02:24:08.797Z,3.28
2023-05-24T02:25:11.596Z,3.27
2023-05-24T02:26:14.483Z,3.58
2023-05-24T02:27:17.325Z,3.53
2023-05-24T02:28:19.990Z,3.11
2023-05-24T02:29:22.672Z,2.91
2023-05-24T02:30:25.550Z,3.47
2023-05-24T02:31:28.860Z,4.34
2023-05-24T02:32:31.765Z,4.74
2023-05-24T02:33:34.480Z,4.97
2023-05-24T02:34:37.136Z,5.03
2023-05-24T02:35:39.916Z,5.03
2023-05-24T02:36:42.704Z,4.55
2023-05-24T02:37:45.676Z,4.70
2023-05-24T02:38:48.745Z,4.85
2023-05-24T02:39:51.722Z,5.43
2023-05-24T02:40:54.824Z,5.20
2023-05-24T02:41:58.512Z,5.28
2023-05-24T02:43:01.502Z,5.28
2023-05-24T02:44:04.553Z,4.78
2023-05-24T02:45:07.517Z,4.63
2023-05-24T02:46:10.532Z,5.15
2023-05-24T02:47:13.779Z,4.92
2023-05-24T02:48:16.863Z,4.96
2023-05-24T02:49:20.044Z,4.91
2023-05-24T02:50:23.134Z,4.98
2023-05-24T02:51:26.313Z,5.33
2023-05-24T02:52:29.896Z,5.10
2023-05-24T02:53:32.979Z,5.35
2023-05-24T02:54:36.051Z,5.79
2023-05-24T02:55:39.131Z,5.07
2023-05-24T02:56:41.917Z,5.63
2023-05-24T02:57:44.790Z,4.91
2023-05-24T02:58:47.754Z,5.34
2023-05-24T02:59:50.650Z,5.17
2023-05-24T03:00:53.618Z,5.04
2023-05-24T03:01:56.654Z,5.21
2023-05-24T03:02:59.824Z,5.10
2023-05-24T03:04:02.823Z,5.02
2023-05-24T03:05:05.960Z,4.51
2023-05-24T03:06:08.907Z,5.08
2023-05-24T03:07:11.992Z,4.98
2023-05-24T03:08:15.284Z,4.82
2023-05-24T03:09:18.154Z,5.11
2023-05-24T03:10:21.123Z,5.38
2023-05-24T03:11:24.318Z,5.43
2023-05-24T03:12:26.982Z,5.32
2023-05-24T03:13:29.752Z,5.32
2023-05-24T03:14:32.613Z,4.85
2023-05-24T03:15:35.294Z,5.14
2023-05-24T03:16:38.210Z,4.74
2023-05-24T03:17:41.072Z,4.77
2023-05-24T03:18:43.814Z,4.92
2023-05-24T03:19:46.575Z,5.68
2023-05-24T03:20:49.354Z,4.78
2023-05-24T03:21:53.879Z,5.60
2023-05-24T03:22:56.842Z,5.23
2023-05-24T03:24:00.234Z,5.63
2023-05-24T03:25:03.223Z,5.70
2023-05-24T03:26:06.297Z,5.35
2023-05-24T03:27:09.576Z,5.40
2023-05-24T03:28:12.647Z,5.14
2023-05-24T03:29:15.733Z,5.28
2023-05-24T03:30:18.910Z,5.34
2023-05-24T03:31:21.925Z,4.99
2023-05-24T03:32:24.990Z,4.81
2023-05-24T03:33:28.062Z,4.79
2023-05-24T03:34:31.334Z,5.32
2023-05-24T03:35:34.618Z,4.61
2023-05-24T03:36:37.596Z,4.43
2023-05-24T03:37:40.580Z,4.53
2023-05-24T03:38:43.454Z,5.00
2023-05-24T03:39:46.445Z,5.18
2023-05-24T03:40:49.396Z,5.17
2023-05-24T03:41:52.699Z,5.11
2023-05-24T03:42:55.773Z,4.43
2023-05-24T03:43:58.742Z,4.90
2023-05-24T03:45:02.018Z,4.48
2023-05-24T03:46:04.779Z,5.15
2023-05-24T03:47:07.668Z,5.27
2023-05-24T03:48:10.752Z,5.08
2023-05-24T03:49:13.635Z,5.47
2023-05-24T03:50:16.711Z,5.56
2023-05-24T03:51:19.578Z,4.88
2023-05-24T03:52:22.663Z,5.22
2023-05-24T03:53:25.740Z,4.65
2023-05-24T03:54:28.926Z,5.22
2023-05-24T03:55:32.014Z,5.03
2023-05-24T03:56:34.877Z,5.11
2023-05-24T03:57:37.748Z,4.53
2023-05-24T03:58:40.735Z,3.57
2023-05-24T03:59:43.705Z,3.25
2023-05-24T04:00:46.780Z,3.48
2023-05-24T04:02:02.089Z,5.03
2023-05-24T04:03:05.286Z,4.91
2023-05-24T04:04:08.213Z,4.88
2023-05-24T04:05:11.281Z,5.07
2023-05-24T04:06:16.268Z,5.18
2023-05-24T04:07:19.076Z,4.85
2023-05-24T04:08:22.056Z,4.86
2023-05-24T04:09:25.151Z,4.60
2023-05-24T04:10:28.224Z,4.59
2023-05-24T04:11:31.404Z,3.55
2023-05-24T04:12:34.480Z,3.44
2023-05-24T04:13:37.463Z,3.27
2023-05-24T04:14:40.646Z,3.30
2023-05-24T04:15:43.505Z,3.45
2023-05-24T04:16:46.608Z,3.13
2023-05-24T04:17:49.633Z,3.28
2023-05-24T04:18:52.686Z,3.00
2023-05-24T04:19:55.884Z,3.35
2023-05-24T04:20:58.710Z,3.02
2023-05-24T04:22:01.573Z,3.30
2023-05-24T04:23:04.352Z,3.36
2023-05-24T04:24:07.035Z,4.69
2023-05-24T04:25:09.744Z,4.22
2023-05-24T04:26:12.766Z,4.71
2023-05-24T04:27:15.645Z,4.94
2023-05-24T04:28:18.513Z,4.38
2023-05-24T04:29:21.400Z,3.66
2023-05-24T04:30:24.173Z,3.46
2023-05-24T04:31:27.213Z,3.90
2023-05-24T04:32:30.515Z,3.45
2023-05-24T04:33:33.520Z,3.81
2023-05-24T04:34:36.490Z,4.00
2023-05-24T04:35:39.680Z,3.09
2023-05-24T04:36:42.651Z,3.35
2023-05-24T04:37:45.826Z,3.75
2023-05-24T04:38:48.799Z,3.14
2023-05-24T04:39:51.697Z,3.08
2023-05-24T04:40:57.627Z,3.19
2023-05-24T04:42:00.652Z,3.59
2023-05-24T04:43:03.691Z,3.53
2023-05-24T04:44:06.578Z,3.60
2023-05-24T04:45:09.634Z,3.29
2023-05-24T04:46:12.645Z,3.75
2023-05-24T04:47:18.353Z,4.11
2023-05-24T04:48:21.638Z,3.50
2023-05-24T04:49:24.616Z,3.76
2023-05-24T04:50:28.046Z,4.08
2023-05-24T04:51:33.880Z,3.92
2023-05-24T04:52:36.921Z,3.95
2023-05-24T04:53:39.804Z,3.97
2023-05-24T04:54:42.775Z,3.78
2023-05-24T04:55:45.852Z,3.86
2023-05-24T04:56:48.935Z,4.11
2023-05-24T04:57:51.814Z,3.85
2023-05-24T04:58:54.900Z,4.32
2023-05-24T04:59:57.865Z,3.82
2023-05-24T05:01:03.506Z,3.80
2023-05-24T05:02:06.607Z,3.81
2023-05-24T05:03:09.634Z,3.71
2023-05-24T05:04:12.742Z,3.74
2023-05-24T05:05:15.717Z,3.98
2023-05-24T05:06:18.803Z,3.95
2023-05-24T05:07:24.647Z,3.82
2023-05-24T05:08:27.621Z,3.76
2023-05-24T05:09:30.604Z,3.70
2023-05-24T05:10:33.575Z,4.02
2023-05-24T05:11:36.458Z,3.75
2023-05-24T05:12:39.531Z,4.18
2023-05-24T05:13:45.368Z,4.36
2023-05-24T05:14:48.673Z,4.09
2023-05-24T05:15:51.736Z,4.12
2023-05-24T05:16:54.988Z,3.90
2023-05-24T05:17:58.162Z,3.73
2023-05-24T05:19:01.069Z,4.05
2023-05-24T05:20:04.446Z,3.82
2023-05-24T05:21:07.445Z,4.59
2023-05-24T05:22:10.531Z,3.85
2023-05-24T05:23:15.953Z,3.65
2023-05-24T05:24:19.334Z,3.62
2023-05-24T05:25:22.548Z,3.67
2023-05-24T05:26:25.600Z,4.10
2023-05-24T05:27:28.574Z,3.72
2023-05-24T05:28:31.451Z,3.73
2023-05-24T05:29:36.882Z,4.03
2023-05-24T05:30:40.922Z,3.56
2023-05-24T05:31:44.083Z,3.74
2023-05-24T05:32:47.124Z,3.86
2023-05-24T05:33:50.035Z,3.85
2023-05-24T05:34:52.716Z,3.62
2023-05-24T05:35:55.880Z,3.65
2023-05-24T05:36:58.652Z,3.59
2023-05-24T05:38:01.429Z,3.73
2023-05-24T05:39:07.059Z,3.70
2023-05-24T05:40:12.724Z,3.77
2023-05-24T05:41:17.941Z,3.95
2023-05-24T05:42:20.704Z,3.81
2023-05-24T05:43:23.475Z,3.91
2023-05-24T05:44:26.141Z,3.84
2023-05-24T05:45:28.828Z,3.75
2023-05-24T05:46:31.770Z,3.94
2023-05-24T05:47:34.818Z,3.88
2023-05-24T05:48:37.764Z,3.98
2023-05-24T05:49:40.733Z,4.01
2023-05-24T05:50:44.176Z,4.21
2023-05-24T05:51:47.596Z,4.16
2023-05-24T05:52:50.471Z,3.92
2023-05-24T05:53:53.969Z,4.18
2023-05-24T05:54:56.950Z,4.09
2023-05-24T05:56:00.160Z,4.60
2023-05-24T05:57:03.313Z,4.16
2023-05-24T05:58:09.049Z,4.35
2023-05-24T05:59:12.139Z,4.25
2023-05-24T06:00:15.023Z,3.95
2023-05-24T06:01:17.898Z,3.98
2023-05-24T06:02:20.774Z,4.42
2023-05-24T06:03:29.597Z,4.39
2023-05-24T06:04:32.773Z,4.12
2023-05-24T06:05:38.689Z,3.93
2023-05-24T06:06:44.230Z,3.88
2023-05-24T06:07:47.520Z,4.04
2023-05-24T06:08:50.591Z,3.74
2023-05-24T06:09:53.677Z,4.03
2023-05-24T06:10:56.656Z,4.27
2023-05-24T06:12:02.204Z,3.86
2023-05-24T06:13:05.095Z,3.95
2023-05-24T06:14:07.942Z,4.38
2023-05-24T06:15:10.913Z,3.93
2023-05-24T06:16:13.860Z,4.14
2023-05-24T06:17:28.764Z,4.12
2023-05-24T06:18:32.027Z,3.83
2023-05-24T06:19:34.911Z,4.06
2023-05-24T06:20:38.113Z,3.88
2023-05-24T06:21:47.358Z,4.00
2023-05-24T06:22:53.056Z,3.69
2023-05-24T06:23:56.458Z,3.78
2023-05-24T06:24:59.333Z,3.82
2023-05-24T06:26:02.396Z,3.72
2023-05-24T06:27:07.823Z,3.98
2023-05-24T06:28:10.697Z,3.91
2023-05-24T06:29:16.865Z,3.98
2023-05-24T06:30:19.899Z,4.32
2023-05-24T06:31:22.978Z,4.11
2023-05-24T06:32:28.880Z,4.46
2023-05-24T06:33:31.841Z,4.28
2023-05-24T06:34:34.916Z,4.42
2023-05-24T06:35:40.458Z,4.50
2023-05-24T06:36:43.528Z,4.64
2023-05-24T06:37:46.524Z,4.38
2023-05-24T06:38:49.275Z,4.54
2023-05-24T06:39:55.533Z,4.32
2023-05-24T06:41:01.474Z,4.26
2023-05-24T06:42:04.454Z,4.23
2023-05-24T06:43:07.532Z,4.38
2023-05-24T06:44:10.413Z,4.35
2023-05-24T06:45:13.397Z,4.14
2023-05-24T06:46:16.270Z,4.05
2023-05-24T06:47:22.381Z,4.49
2023-05-24T06:48:25.598Z,4.41
2023-05-24T06:49:28.803Z,4.49
2023-05-24T06:50:32.179Z,4.26
2023-05-24T06:51:37.520Z,4.50
2023-05-24T06:52:43.244Z,4.84
2023-05-24T06:53:49.083Z,4.25
2023-05-24T06:54:51.860Z,4.71
2023-05-24T06:55:56.911Z,5.14
2023-05-24T06:56:59.135Z,4.93
2023-05-24T06:58:02.128Z,4.82
2023-05-24T06:59:04.855Z,4.96
2023-05-24T07:00:07.564Z,4.58
2023-05-24T07:01:10.332Z,4.73
2023-05-24T07:02:13.001Z,4.73
2023-05-24T07:03:15.670Z,4.87
2023-05-24T07:04:18.491Z,4.90
2023-05-24T07:05:21.222Z,5.02
2023-05-24T07:06:24.294Z,5.02
2023-05-24T07:07:27.073Z,4.73
2023-05-24T07:08:29.842Z,4.58
2023-05-24T07:09:32.519Z,4.85
2023-05-24T07:10:35.500Z,4.78
2023-05-24T07:11:38.790Z,5.01
2023-05-24T07:12:41.762Z,5.06
2023-05-24T07:13:44.722Z,5.28
2023-05-24T07:14:47.605Z,5.23
2023-05-24T07:15:50.575Z,4.81
2023-05-24T07:16:53.796Z,4.52
2023-05-24T07:17:56.806Z,4.59
2023-05-24T07:19:01.253Z,4.88
2023-05-24T07:20:04.242Z,5.01
2023-05-24T07:21:07.209Z,5.44
2023-05-24T07:22:10.420Z,5.56
2023-05-24T07:23:13.365Z,4.99
2023-05-24T07:24:16.528Z,4.52
2023-05-24T07:25:19.735Z,5.09
2023-05-24T07:26:22.501Z,5.37
2023-05-24T07:27:25.476Z,4.83
2023-05-24T07:28:28.361Z,4.82
2023-05-24T07:29:31.013Z,5.56
2023-05-24T07:30:33.789Z,4.85
2023-05-24T07:31:36.555Z,5.03
2023-05-24T07:32:39.458Z,5.31
2023-05-24T07:33:42.114Z,5.26
2023-05-24T07:34:45.085Z,5.18
2023-05-24T07:35:47.955Z,5.60
2023-05-24T07:36:51.051Z,5.55
2023-05-24T07:37:54.443Z,5.38
2023-05-24T07:38:57.291Z,5.53
2023-05-24T07:40:00.694Z,5.67
2023-05-24T07:41:03.654Z,5.58
2023-05-24T07:42:06.530Z,5.22
2023-05-24T07:43:09.721Z,5.63
2023-05-24T07:44:12.901Z,5.63
2023-05-24T07:45:15.993Z,5.39
2023-05-24T07:46:19.026Z,5.59
2023-05-24T07:47:21.933Z,5.26
2023-05-24T07:48:25.020Z,5.42
2023-05-24T07:49:27.793Z,5.26
2023-05-24T07:50:30.576Z,5.15
2023-05-24T07:51:33.237Z,5.03
2023-05-24T07:52:35.909Z,5.41
2023-05-24T07:53:38.989Z,5.29
2023-05-24T07:54:42.071Z,5.86
2023-05-24T07:55:44.926Z,6.30
2023-05-24T07:56:47.716Z,6.01
2023-05-24T07:57:50.484Z,6.14
2023-05-24T07:58:53.458Z,6.00
2023-05-24T07:59:56.342Z,6.07
2023-05-24T08:00:59.006Z,6.49
2023-05-24T08:02:01.893Z,5.62
2023-05-24T08:03:04.945Z,5.76
2023-05-24T08:04:08.322Z,5.98
2023-05-24T08:05:11.214Z,5.78
2023-05-24T08:06:14.214Z,5.94
2023-05-24T08:07:17.100Z,5.72
2023-05-24T08:08:20.044Z,5.62
2023-05-24T08:09:22.931Z,5.77
2023-05-24T08:10:25.934Z,5.99
2023-05-24T08:11:28.875Z,5.65
2023-05-24T08:12:31.747Z,6.08
2023-05-24T08:13:34.726Z,6.25
2023-05-24T08:14:37.926Z,6.05
2023-05-24T08:15:40.938Z,5.95
2023-05-24T08:16:44.082Z,5.84
2023-05-24T08:17:47.104Z,5.55
2023-05-24T08:18:52.532Z,5.48
2023-05-24T08:19:54.882Z,6.38
2023-05-24T08:20:57.713Z,6.23
2023-05-24T08:22:00.480Z,5.94
2023-05-24T08:23:03.256Z,6.37
2023-05-24T08:24:08.521Z,6.00
2023-05-24T08:25:10.336Z,6.16
2023-05-24T08:26:13.118Z,5.93
2023-05-24T08:27:16.197Z,6.17
2023-05-24T08:28:18.971Z,6.49
2023-05-24T08:29:21.731Z,6.01
2023-05-24T08:30:24.528Z,6.24
2023-05-24T08:31:27.337Z,6.12
2023-05-24T08:32:30.693Z,6.23
2023-05-24T08:33:33.638Z,6.26
2023-05-24T08:34:36.621Z,6.30
2023-05-24T08:35:39.917Z,6.24
2023-05-24T08:36:42.988Z,6.29
2023-05-24T08:37:45.980Z,5.68
2023-05-24T08:38:48.939Z,5.75
2023-05-24T08:39:51.907Z,6.70
2023-05-24T08:40:55.194Z,6.42
2023-05-24T08:42:08.615Z,6.18
2023-05-24T08:43:02.841Z,6.29
2023-05-24T08:44:05.764Z,6.18
2023-05-24T08:45:08.846Z,6.12
2023-05-24T08:46:11.948Z,6.45
2023-05-24T08:47:14.899Z,6.75
2023-05-24T08:48:17.847Z,6.48
2023-05-24T08:49:20.754Z,6.97
2023-05-24T08:50:23.979Z,6.98
2023-05-24T08:51:27.122Z,6.24
2023-05-24T08:52:29.989Z,6.78
2023-05-24T08:53:32.889Z,6.78
2023-05-24T08:54:35.641Z,6.88
2023-05-24T08:55:38.514Z,7.01
2023-05-24T08:56:41.700Z,7.25
2023-05-24T08:57:44.468Z,7.24
2023-05-24T08:58:47.662Z,6.91
2023-05-24T08:59:50.732Z,6.31
2023-05-24T09:00:53.728Z,6.46
2023-05-24T09:01:56.938Z,7.18
2023-05-24T09:03:00.299Z,7.36
2023-05-24T09:04:03.288Z,6.83
2023-05-24T09:05:06.435Z,6.95
2023-05-24T09:06:09.422Z,6.95
2023-05-24T09:07:12.598Z,7.23
2023-05-24T09:08:15.581Z,6.99
2023-05-24T09:09:18.453Z,7.19
2023-05-24T09:10:21.322Z,6.64
2023-05-24T09:11:24.193Z,7.03
2023-05-24T09:12:37.262Z,6.89
2023-05-24T09:13:31.991Z,7.37
2023-05-24T09:14:34.869Z,6.98
2023-05-24T09:15:37.893Z,6.59
2023-05-24T09:16:40.840Z,7.08
2023-05-24T09:17:43.646Z,6.95
2023-05-24T09:18:46.371Z,7.24
2023-05-24T09:19:49.229Z,7.37
2023-05-24T09:20:51.956Z,7.72
2023-05-24T09:21:54.679Z,8.03
2023-05-24T09:22:57.487Z,7.58
2023-05-24T09:24:00.153Z,7.78
2023-05-24T09:25:02.712Z,7.92
2023-05-24T09:26:05.460Z,7.87
2023-05-24T09:27:08.255Z,8.68
2023-05-24T09:28:11.012Z,8.75
2023-05-24T09:29:13.779Z,9.45
2023-05-24T09:30:16.685Z,9.93
2023-05-24T09:31:19.478Z,9.83
2023-05-24T09:32:22.226Z,9.71
2023-05-24T09:33:24.967Z,8.69
2023-05-24T09:34:27.746Z,9.06
2023-05-24T09:35:30.616Z,8.58
2023-05-24T09:36:33.387Z,7.47
2023-05-24T09:37:36.056Z,7.68
2023-05-24T09:38:38.833Z,8.08
2023-05-24T09:39:41.500Z,8.24
2023-05-24T09:40:44.442Z,7.44
2023-05-24T09:41:47.350Z,7.85
2023-05-24T09:42:50.438Z,7.24
2023-05-24T09:43:53.617Z,7.15
2023-05-24T09:44:56.541Z,7.23
2023-05-24T09:45:59.509Z,7.25
2023-05-24T09:47:02.396Z,6.88
2023-05-24T09:48:05.540Z,6.98
2023-05-24T09:49:08.914Z,7.08
2023-05-24T09:50:11.886Z,7.14
2023-05-24T09:51:14.999Z,7.11
2023-05-24T09:52:17.947Z,7.13
2023-05-24T09:53:21.017Z,7.79
2023-05-24T09:54:23.903Z,7.41
2023-05-24T09:55:26.777Z,7.34
2023-05-24T09:56:30.773Z,7.19
2023-05-24T09:57:33.646Z,7.59
2023-05-24T09:58:38.049Z,7.18
2023-05-24T09:59:42.969Z,7.49
2023-05-24T10:00:46.006Z,7.95
2023-05-24T10:01:49.464Z,7.64
2023-05-24T10:02:53.432Z,7.94
2023-05-24T10:03:56.755Z,7.79
2023-05-24T10:04:59.842Z,7.57
2023-05-24T10:06:02.800Z,7.85
2023-05-24T10:07:05.776Z,7.58
2023-05-24T10:08:08.636Z,7.53
2023-05-24T10:09:11.625Z,7.84
2023-05-24T10:10:14.928Z,7.96
2023-05-24T10:11:17.882Z,8.19
2023-05-24T10:12:20.855Z,7.89
2023-05-24T10:13:23.525Z,7.90
2023-05-24T10:14:26.211Z,7.58
2023-05-24T10:15:29.289Z,7.38
2023-05-24T10:16:31.957Z,7.42
2023-05-24T10:17:34.833Z,7.50
2023-05-24T10:18:37.487Z,8.00
2023-05-24T10:19:40.261Z,7.92
2023-05-24T10:20:43.596Z,7.96
2023-05-24T10:21:46.770Z,8.24
2023-05-24T10:22:49.705Z,7.87
2023-05-24T10:23:52.594Z,7.87
2023-05-24T10:24:55.657Z,8.20
2023-05-24T10:25:58.945Z,7.82
2023-05-24T10:27:01.921Z,7.68
2023-05-24T10:28:04.898Z,7.94
2023-05-24T10:29:07.876Z,8.02
2023-05-24T10:30:12.960Z,8.31
2023-05-24T10:31:15.594Z,8.36
2023-05-24T10:32:18.552Z,8.42
2023-05-24T10:33:21.435Z,8.79
2023-05-24T10:34:24.501Z,9.06
2023-05-24T10:35:27.472Z,8.92
2023-05-24T10:36:30.358Z,8.92
2023-05-24T10:37:33.331Z,9.17
2023-05-24T10:38:36.095Z,9.32
2023-05-24T10:39:39.189Z,9.33
2023-05-24T10:40:42.083Z,10.27
2023-05-24T10:41:45.130Z,9.32
2023-05-24T10:42:48.117Z,9.66
2023-05-24T10:44:07.992Z,9.92
2023-05-24T10:44:55.499Z,10.40
2023-05-24T10:45:58.520Z,10.29
2023-05-24T10:47:01.669Z,10.69
2023-05-24T10:48:04.551Z,11.32
2023-05-24T10:49:07.577Z,10.38
2023-05-24T10:50:10.483Z,10.72
2023-05-24T10:51:13.362Z,11.44
2023-05-24T10:52:16.639Z,9.36
2023-05-24T10:53:19.640Z,9.84
2023-05-24T10:54:22.803Z,10.42
2023-05-24T10:55:25.906Z,10.35
2023-05-24T10:56:28.866Z,11.62
2023-05-24T10:57:31.959Z,11.36
2023-05-24T10:58:34.813Z,11.97
2023-05-24T10:59:38.019Z,12.25
2023-05-24T11:00:40.869Z,11.44
2023-05-24T11:01:43.685Z,11.90
2023-05-24T11:02:46.640Z,12.11
2023-05-24T11:03:49.290Z,12.06
2023-05-24T11:04:52.161Z,11.32
2023-05-24T11:05:55.276Z,11.24
2023-05-24T11:06:58.031Z,11.89
2023-05-24T11:08:00.789Z,11.82
2023-05-24T11:09:03.570Z,10.92
2023-05-24T11:10:06.233Z,11.21
2023-05-24T11:11:23.323Z,10.88
2023-05-24T11:12:13.308Z,11.55
2023-05-24T11:13:16.097Z,11.21
2023-05-24T11:14:18.754Z,11.82
2023-05-24T11:15:21.739Z,12.09
2023-05-24T11:16:24.642Z,11.82
2023-05-24T11:17:27.618Z,11.70
2023-05-24T11:18:30.579Z,12.08
2023-05-24T11:19:33.537Z,12.44
2023-05-24T11:20:36.620Z,12.02
2023-05-24T11:21:39.592Z,12.01
2023-05-24T11:22:42.676Z,13.00
2023-05-24T11:23:45.960Z,12.82
2023-05-24T11:24:48.848Z,17.15
2023-05-24T11:25:51.805Z,31.31
2023-05-24T11:26:54.685Z,16.69
2023-05-24T11:27:57.376Z,11.98
2023-05-24T11:29:03.311Z,11.65
2023-05-24T11:30:05.047Z,11.99
2023-05-24T11:31:08.063Z,11.96
2023-05-24T11:32:11.286Z,11.46
2023-05-24T11:33:14.463Z,10.69
2023-05-24T11:34:17.682Z,10.38
2023-05-24T11:35:21.061Z,10.91
2023-05-24T11:36:24.047Z,11.40
2023-05-24T11:37:38.506Z,10.85
2023-05-24T11:38:31.425Z,11.91
2023-05-24T11:39:34.634Z,11.97
2023-05-24T11:40:37.482Z,12.22
2023-05-24T11:41:40.463Z,11.77
2023-05-24T11:42:43.546Z,11.02
2023-05-24T11:43:46.310Z,10.12
2023-05-24T11:44:49.096Z,10.52
2023-05-24T11:45:51.822Z,10.64
2023-05-24T11:46:54.523Z,10.75
2023-05-24T11:47:57.210Z,9.82
2023-05-24T11:48:59.864Z,9.88
2023-05-24T11:50:02.863Z,9.93
2023-05-24T11:51:05.530Z,9.91
2023-05-24T11:52:08.278Z,9.38
2023-05-24T11:53:11.189Z,9.61
2023-05-24T11:54:14.131Z,9.82
2023-05-24T11:55:18.242Z,9.18
2023-05-24T11:56:20.904Z,9.19
2023-05-24T11:57:23.893Z,9.25
2023-05-24T11:58:26.869Z,8.35
2023-05-24T11:59:29.741Z,8.91
2023-05-24T12:00:33.132Z,8.02
2023-05-24T12:01:35.898Z,8.62
2023-05-24T12:02:38.738Z,8.38
2023-05-24T12:03:41.571Z,8.60
2023-05-24T12:04:44.607Z,8.51
2023-05-24T12:05:47.712Z,8.60
2023-05-24T12:06:50.493Z,8.69
2023-05-24T12:07:53.353Z,8.55
2023-05-24T12:08:56.017Z,8.81
2023-05-24T12:09:58.999Z,8.98
2023-05-24T12:11:02.076Z,8.49
2023-05-24T12:12:04.964Z,8.39
2023-05-24T12:13:07.923Z,8.52
2023-05-24T12:14:10.919Z,8.20
2023-05-24T12:15:13.981Z,8.14
2023-05-24T12:16:17.234Z,8.05
2023-05-24T12:17:20.049Z,7.56
2023-05-24T12:18:23.023Z,7.48
2023-05-24T12:19:33.214Z,8.21
2023-05-24T12:20:30.427Z,7.70
2023-05-24T12:21:33.692Z,8.03
2023-05-24T12:22:36.662Z,7.85
2023-05-24T12:23:39.644Z,7.73
2023-05-24T12:24:42.620Z,7.20
2023-05-24T12:25:45.595Z,7.28
2023-05-24T12:26:48.800Z,7.80
2023-05-24T12:27:53.689Z,8.02
2023-05-24T12:28:56.369Z,7.49
2023-05-24T12:29:59.346Z,7.42
2023-05-24T12:31:02.035Z,7.86
2023-05-24T12:32:05.612Z,7.65
2023-05-24T12:33:08.710Z,7.91
2023-05-24T12:34:11.664Z,7.38
2023-05-24T12:35:14.647Z,7.57
2023-05-24T12:36:17.518Z,7.64
2023-05-24T12:37:20.732Z,6.88
2023-05-24T12:38:23.779Z,7.00
2023-05-24T12:39:27.058Z,7.32
2023-05-24T12:40:29.732Z,8.02
2023-05-24T12:41:32.609Z,8.21
2023-05-24T12:42:35.378Z,7.77
2023-05-24T12:43:38.044Z,8.32
2023-05-24T12:44:40.767Z,7.88
2023-05-24T12:45:43.489Z,7.20
2023-05-24T12:46:46.196Z,7.82
2023-05-24T12:47:49.181Z,7.67
2023-05-24T12:48:51.900Z,7.58
2023-05-24T12:49:54.680Z,7.72
2023-05-24T12:50:57.455Z,8.16
2023-05-24T12:52:00.237Z,8.00
2023-05-24T12:53:03.098Z,7.64
2023-05-24T12:54:05.873Z,7.32
2023-05-24T12:55:08.644Z,7.49
2023-05-24T12:56:11.418Z,7.48
2023-05-24T12:57:14.301Z,7.47
2023-05-24T12:58:17.168Z,7.61
2023-05-24T12:59:19.983Z,7.79
2023-05-24T13:00:22.710Z,7.10
2023-05-24T13:01:25.559Z,7.39
2023-05-24T13:02:28.172Z,7.82
2023-05-24T13:03:31.031Z,8.52
2023-05-24T13:04:33.984Z,8.61
2023-05-24T13:05:36.833Z,8.38
2023-05-24T13:06:39.555Z,7.97
2023-05-24T13:07:42.352Z,7.66
2023-05-24T13:08:45.312Z,7.54
2023-05-24T13:09:48.067Z,7.38
2023-05-24T13:10:50.901Z,7.67
2023-05-24T13:11:53.715Z,7.59
2023-05-24T13:12:56.497Z,7.11
2023-05-24T13:13:59.293Z,6.83
2023-05-24T13:15:01.935Z,7.86
2023-05-24T13:16:04.700Z,7.85
2023-05-24T13:17:07.527Z,8.33
2023-05-24T13:18:10.458Z,8.25
2023-05-24T13:19:13.658Z,8.18
2023-05-24T13:20:16.567Z,8.38
2023-05-24T13:21:19.488Z,8.23
2023-05-24T13:22:22.462Z,7.91
2023-05-24T13:23:25.347Z,8.32
2023-05-24T13:24:28.420Z,7.97
2023-05-24T13:25:31.503Z,7.99
2023-05-24T13:26:34.585Z,8.34
2023-05-24T13:27:37.860Z,8.40
2023-05-24T13:28:53.296Z,8.86
2023-05-24T13:29:56.394Z,8.92
2023-05-24T13:30:49.998Z,8.81
2023-05-24T13:31:52.949Z,8.89
2023-05-24T13:32:55.970Z,9.11
2023-05-24T13:33:59.106Z,8.61
2023-05-24T13:35:03.221Z,9.28
2023-05-24T13:36:06.899Z,8.54
2023-05-24T13:37:09.879Z,8.79
2023-05-24T13:38:12.749Z,9.29
2023-05-24T13:39:16.725Z,8.82
2023-05-24T13:40:20.044Z,9.22
2023-05-24T13:41:22.938Z,8.46
2023-05-24T13:42:26.147Z,9.28
2023-05-24T13:43:29.078Z,8.72
2023-05-24T13:44:32.050Z,8.68
2023-05-24T13:45:35.032Z,9.47
2023-05-24T13:46:38.257Z,9.57
2023-05-24T13:47:41.676Z,8.98
2023-05-24T13:48:45.000Z,8.90
2023-05-24T13:49:47.956Z,9.27
2023-05-24T13:50:51.261Z,9.24
2023-05-24T13:51:57.275Z,9.08
2023-05-24T13:52:58.730Z,9.53
2023-05-24T13:54:01.599Z,9.45
2023-05-24T13:55:04.499Z,9.43
2023-05-24T13:56:07.452Z,9.61
2023-05-24T13:57:10.231Z,9.39
2023-05-24T13:58:13.003Z,10.23